createdAt,value
2019-03-12T00:00:37.561Z,22.09
2019-03-12T00:03:05.692Z,22.14
2019-03-12T00:05:33.891Z,22.11
2019-03-12T00:08:02.050Z,22.07
2019-03-12T00:10:30.194Z,22.10
2019-03-12T00:12:58.388Z,22.05
2019-03-12T00:15:26.556Z,22.07
2019-03-12T00:17:54.827Z,22.05
2019-03-12T00:20:23.114Z,22.03
2019-03-12T00:22:51.468Z,22.01
2019-03-12T00:25:19.673Z,22.03
2019-03-12T00:27:47.815Z,22.04
2019-03-12T00:30:16.019Z,22.03
2019-03-12T00:32:44.390Z,22.04
2019-03-12T00:35:12.723Z,22.04
2019-03-12T00:37:40.943Z,22.02
2019-03-12T00:40:09.140Z,21.99
2019-03-12T00:42:37.310Z,21.98
2019-03-12T00:45:05.782Z,21.93
2019-03-12T00:47:33.972Z,21.94
2019-03-12T00:50:21.296Z,21.94
2019-03-12T00:52:49.431Z,21.97
2019-03-12T00:55:17.665Z,21.99
2019-03-12T00:57:45.827Z,21.95
2019-03-12T01:00:14.712Z,21.95
2019-03-12T01:02:42.921Z,21.98
2019-03-12T01:05:11.109Z,21.95
2019-03-12T01:07:39.325Z,21.95
2019-03-12T01:10:08.296Z,21.89
2019-03-12T01:12:36.388Z,21.91
2019-03-12T01:15:23.635Z,21.91
2019-03-12T01:17:51.784Z,21.89
2019-03-12T01:20:19.925Z,21.88
2019-03-12T01:22:48.000Z,21.86
2019-03-12T01:25:16.164Z,21.86
2019-03-12T01:27:44.289Z,21.84
2019-03-12T01:30:32.199Z,21.85
2019-03-12T01:33:00.327Z,21.81
2019-03-12T01:35:28.429Z,21.82
2019-03-12T01:37:56.576Z,21.82
2019-03-12T01:40:24.732Z,21.81
2019-03-12T01:42:52.928Z,21.79
2019-03-12T01:45:21.017Z,21.79
2019-03-12T01:48:08.077Z,21.79
2019-03-12T01:50:36.527Z,21.76
2019-03-12T01:53:04.738Z,21.78
2019-03-12T01:55:32.857Z,21.77
2019-03-12T01:58:19.896Z,21.77
2019-03-12T02:00:48.019Z,21.79
2019-03-12T02:03:16.259Z,21.74
2019-03-12T02:05:44.393Z,21.72
2019-03-12T02:08:12.476Z,21.72
2019-03-12T02:10:59.696Z,21.73
2019-03-12T02:13:27.832Z,21.73
2019-03-12T02:15:55.917Z,21.73
2019-03-12T02:18:24.031Z,21.72
2019-03-12T02:20:52.114Z,21.74
2019-03-12T02:23:20.267Z,21.72
2019-03-12T02:25:48.353Z,21.68
2019-03-12T02:28:16.469Z,21.69
2019-03-12T02:30:44.594Z,21.69
2019-03-12T02:33:12.734Z,21.65
2019-03-12T02:35:40.967Z,21.66
2019-03-12T02:38:09.131Z,21.67
2019-03-12T02:40:37.307Z,21.53
2019-03-12T02:43:05.488Z,21.67
2019-03-12T02:45:33.726Z,21.66
2019-03-12T02:48:20.826Z,21.64
2019-03-12T02:50:49.040Z,21.64
2019-03-12T02:53:17.240Z,21.63
2019-03-12T02:55:45.387Z,21.61
2019-03-12T02:58:13.499Z,21.62
2019-03-12T03:00:41.704Z,21.62
2019-03-12T03:03:09.788Z,21.63
2019-03-12T03:08:29.478Z,21.64
2019-03-12T03:10:57.535Z,21.62
2019-03-12T03:13:44.662Z,21.61
2019-03-12T03:16:12.756Z,21.60
2019-03-12T03:18:40.944Z,21.61
2019-03-12T03:21:09.046Z,21.59
2019-03-12T03:23:37.161Z,21.55
2019-03-12T03:26:05.292Z,21.56
2019-03-12T03:28:33.328Z,21.58
2019-03-12T03:31:01.420Z,21.55
2019-03-12T03:33:29.537Z,21.56
2019-03-12T03:35:57.588Z,21.56
2019-03-12T03:38:25.669Z,21.55
2019-03-12T03:40:53.745Z,21.55
2019-03-12T03:43:21.888Z,21.52
2019-03-12T03:46:09.112Z,21.54
2019-03-12T03:48:56.328Z,21.52
2019-03-12T03:51:24.408Z,21.48
2019-03-12T03:53:52.488Z,21.50
2019-03-12T03:56:20.740Z,21.50
2019-03-12T03:58:48.879Z,21.49
2019-03-12T04:01:16.958Z,21.51
2019-03-12T04:03:45.041Z,21.50
2019-03-12T04:06:13.113Z,21.51
2019-03-12T04:08:41.204Z,21.52
2019-03-12T04:11:09.314Z,21.52
2019-03-12T04:13:37.384Z,21.50
2019-03-12T04:16:05.472Z,21.51
2019-03-12T04:18:33.530Z,21.52
2019-03-12T04:21:01.681Z,21.55
2019-03-12T04:23:29.968Z,21.53
2019-03-12T04:25:58.000Z,21.52
2019-03-12T04:28:26.112Z,21.54
2019-03-12T04:30:54.238Z,21.52
2019-03-12T04:33:41.512Z,21.57
2019-03-12T04:36:09.655Z,21.57
2019-03-12T04:38:37.863Z,21.58
2019-03-12T04:41:06.015Z,21.62
2019-03-12T04:43:34.107Z,21.59
2019-03-12T04:46:02.252Z,21.61
2019-03-12T04:48:30.447Z,21.58
2019-03-12T04:50:58.632Z,21.56
2019-03-12T04:53:26.708Z,21.53
2019-03-12T04:55:54.845Z,21.54
2019-03-12T05:01:13.650Z,21.54
2019-03-12T05:03:41.832Z,21.56
2019-03-12T05:06:09.954Z,21.55
2019-03-12T05:08:38.188Z,21.56
2019-03-12T05:11:25.412Z,21.54
2019-03-12T05:14:12.634Z,21.60
2019-03-12T05:16:40.816Z,21.64
2019-03-12T05:19:08.980Z,21.60
2019-03-12T05:21:37.099Z,21.62
2019-03-12T05:24:05.220Z,21.59
2019-03-12T05:26:33.329Z,21.60
2019-03-12T05:29:01.472Z,21.52
2019-03-12T05:31:29.621Z,21.61
2019-03-12T05:33:58.144Z,21.59
2019-03-12T05:36:45.435Z,21.57
2019-03-12T05:39:13.605Z,21.62
2019-03-12T05:41:41.716Z,21.62
2019-03-12T05:44:10.013Z,21.56
2019-03-12T05:46:38.150Z,21.59
2019-03-12T05:49:06.304Z,21.56
2019-03-12T05:51:34.580Z,21.57
2019-03-12T05:56:50.180Z,21.58
2019-03-12T05:59:18.436Z,21.59
2019-03-12T06:01:46.897Z,21.55
2019-03-12T06:04:15.127Z,21.58
2019-03-12T06:06:43.441Z,21.54
2019-03-12T06:09:11.582Z,21.54
2019-03-12T06:11:39.706Z,21.56
2019-03-12T06:14:07.825Z,21.52
2019-03-12T06:16:35.901Z,21.55
2019-03-12T06:19:04.166Z,21.55
2019-03-12T06:21:32.360Z,21.55
2019-03-12T06:24:00.786Z,21.51
2019-03-12T06:26:28.977Z,21.50
2019-03-12T06:28:57.284Z,21.51
2019-03-12T06:31:59.501Z,21.47
2019-03-12T06:34:52.519Z,21.47
2019-03-12T06:37:51.863Z,21.47
2019-03-12T06:40:28.737Z,21.46
2019-03-12T06:43:06.301Z,21.49
2019-03-12T06:45:59.302Z,21.47
2019-03-12T06:48:37.043Z,21.52
2019-03-12T06:51:26.939Z,21.49
2019-03-12T06:54:14.105Z,21.49
2019-03-12T06:57:04.334Z,21.51
2019-03-12T06:59:41.431Z,21.50
2019-03-12T07:02:27.005Z,21.50
2019-03-12T07:05:16.927Z,21.48
2019-03-12T07:07:52.491Z,21.47
2019-03-12T07:10:30.784Z,21.47
2019-03-12T07:13:36.303Z,21.46
2019-03-12T07:16:12.364Z,21.48
2019-03-12T07:19:05.519Z,21.50
2019-03-12T07:22:02.375Z,21.46
2019-03-12T07:24:44.520Z,21.58
2019-03-12T07:27:37.642Z,21.66
2019-03-12T07:30:23.963Z,21.43
2019-03-12T07:33:26.227Z,21.54
2019-03-12T07:36:24.626Z,21.56
2019-03-12T07:38:59.284Z,21.59
2019-03-12T07:41:43.425Z,21.65
2019-03-12T07:44:39.592Z,21.73
2019-03-12T07:47:45.035Z,21.79
2019-03-12T07:50:31.030Z,21.72
2019-03-12T07:53:17.484Z,21.76
2019-03-12T07:56:07.424Z,21.74
2019-03-12T07:58:45.608Z,21.81
2019-03-12T08:01:18.779Z,21.75
2019-03-12T08:04:04.784Z,21.77
2019-03-12T08:07:12.986Z,21.77
2019-03-12T08:09:56.659Z,21.77
2019-03-12T08:12:53.007Z,21.82
2019-03-12T08:15:37.044Z,21.79
2019-03-12T08:18:30.011Z,21.83
2019-03-12T08:21:21.615Z,21.81
2019-03-12T08:23:47.908Z,21.85
2019-03-12T08:26:30.500Z,21.74
2019-03-12T08:29:26.700Z,21.66
2019-03-12T08:32:12.739Z,21.65
2019-03-12T08:35:08.434Z,21.63
2019-03-12T08:37:44.281Z,21.64
2019-03-12T08:40:22.690Z,21.67
2019-03-12T08:43:05.679Z,21.71
2019-03-12T08:46:02.082Z,21.68
2019-03-12T08:48:47.923Z,21.70
2019-03-12T08:51:26.756Z,21.67
2019-03-12T08:54:12.901Z,21.60
2019-03-12T08:57:06.104Z,21.57
2019-03-12T08:59:53.275Z,21.63
2019-03-12T09:02:36.421Z,21.72
2019-03-12T09:05:30.012Z,21.71
2019-03-12T09:08:23.176Z,21.80
2019-03-12T09:11:19.464Z,21.81
2019-03-12T09:14:09.501Z,21.86
2019-03-12T09:17:14.747Z,21.94
2019-03-12T09:20:07.899Z,22.01
2019-03-12T09:22:54.992Z,22.00
2019-03-12T09:25:48.340Z,21.98
2019-03-12T09:28:44.761Z,21.98
2019-03-12T09:31:25.478Z,21.92
2019-03-12T09:34:02.913Z,21.91
2019-03-12T09:36:48.668Z,21.89
2019-03-12T09:39:47.663Z,21.83
2019-03-12T09:42:30.539Z,21.81
2019-03-12T09:45:16.375Z,21.91
2019-03-12T09:48:03.509Z,22.04
2019-03-12T09:50:39.220Z,22.08
2019-03-12T09:53:12.842Z,22.07
2019-03-12T09:55:53.407Z,22.13
2019-03-12T09:58:29.557Z,22.14
2019-03-12T10:01:11.497Z,22.20
2019-03-12T10:03:52.544Z,22.16
2019-03-12T10:06:31.575Z,22.07
2019-03-12T10:09:12.628Z,22.00
2019-03-12T10:11:52.368Z,22.02
2019-03-12T10:14:54.896Z,22.11
2019-03-12T10:17:54.071Z,22.14
2019-03-12T10:20:50.234Z,22.22
2019-03-12T10:23:49.408Z,22.23
2019-03-12T10:26:48.917Z,22.27
2019-03-12T10:29:34.688Z,22.30
2019-03-12T10:32:20.638Z,22.29
2019-03-12T10:34:56.035Z,22.35
2019-03-12T10:37:55.396Z,22.31
2019-03-12T10:40:30.883Z,22.26
2019-03-12T10:43:29.575Z,22.18
2019-03-12T10:46:15.301Z,22.19
2019-03-12T10:48:43.844Z,22.20
2019-03-12T10:51:13.166Z,22.12
2019-03-12T10:53:41.445Z,22.11
2019-03-12T10:56:09.600Z,22.19
2019-03-12T10:58:37.766Z,22.14
2019-03-12T11:01:05.898Z,22.01
2019-03-12T11:03:34.119Z,22.09
2019-03-12T11:06:02.263Z,22.18
2019-03-12T11:08:30.479Z,22.23
2019-03-12T11:10:58.644Z,22.25
2019-03-12T11:13:26.839Z,22.31
2019-03-12T11:15:55.037Z,22.30
2019-03-12T11:18:23.238Z,22.32
2019-03-12T11:20:51.375Z,22.32
2019-03-12T11:23:19.512Z,22.38
2019-03-12T11:25:47.678Z,22.37
2019-03-12T11:28:15.863Z,22.40
2019-03-12T11:30:44.007Z,22.43
2019-03-12T11:33:12.207Z,22.47
2019-03-12T11:35:40.441Z,22.37
2019-03-12T11:38:08.608Z,22.36
2019-03-12T11:40:36.738Z,22.36
2019-03-12T11:43:04.929Z,22.42
2019-03-12T11:45:36.687Z,22.45
2019-03-12T11:48:02.914Z,22.44
2019-03-12T11:50:32.307Z,22.49
2019-03-12T11:53:01.197Z,22.50
2019-03-12T11:55:29.971Z,22.52
2019-03-12T11:57:58.138Z,22.53
2019-03-12T12:00:29.551Z,22.47
2019-03-12T12:03:00.278Z,22.49
2019-03-12T12:05:27.587Z,22.53
2019-03-12T12:07:55.767Z,22.48
2019-03-12T12:10:23.966Z,22.53
2019-03-12T12:12:52.169Z,22.51
2019-03-12T12:15:20.344Z,22.57
2019-03-12T12:17:49.451Z,22.53
2019-03-12T12:20:28.832Z,22.53
2019-03-12T12:22:47.801Z,22.55
2019-03-12T12:25:16.034Z,22.52
2019-03-12T12:33:05.278Z,22.55
2019-03-12T12:35:52.467Z,22.55
2019-03-12T12:38:20.710Z,22.59
2019-03-12T12:40:48.907Z,22.57
2019-03-12T12:43:17.278Z,22.58
2019-03-12T12:45:45.485Z,22.54
2019-03-12T12:48:13.823Z,22.60
2019-03-12T12:50:42.073Z,22.60
2019-03-12T12:53:10.397Z,22.58
2019-03-12T12:55:38.651Z,22.60
2019-03-12T12:58:06.919Z,22.58
2019-03-12T13:00:38.006Z,22.63
2019-03-12T13:03:04.997Z,22.67
2019-03-12T13:05:33.284Z,22.63
2019-03-12T13:08:01.566Z,22.58
2019-03-12T13:10:29.845Z,22.60
2019-03-12T13:12:58.059Z,22.63
2019-03-12T13:15:26.267Z,22.67
2019-03-12T13:17:54.489Z,22.66
2019-03-12T13:20:22.700Z,22.66
2019-03-12T13:22:50.948Z,22.64
2019-03-12T13:25:19.606Z,22.66
2019-03-12T13:27:47.861Z,22.66
2019-03-12T13:30:16.769Z,22.69
2019-03-12T13:32:44.990Z,22.76
2019-03-12T13:35:13.547Z,22.75
2019-03-12T13:37:41.844Z,22.71
2019-03-12T13:40:10.639Z,22.75
2019-03-12T13:42:38.989Z,22.75
2019-03-12T13:45:07.548Z,22.80
2019-03-12T13:47:35.790Z,22.80
2019-03-12T13:50:04.342Z,22.77
2019-03-12T13:52:32.615Z,22.75
2019-03-12T13:55:01.663Z,22.72
2019-03-12T13:57:30.599Z,22.72
2019-03-12T13:59:58.815Z,22.77
2019-03-12T14:02:27.185Z,22.76
2019-03-12T14:04:55.540Z,22.72
2019-03-12T14:07:23.790Z,22.75
2019-03-12T14:09:52.256Z,22.74
2019-03-12T14:12:20.475Z,22.79
2019-03-12T14:14:48.832Z,22.77
2019-03-12T14:17:18.557Z,22.82
2019-03-12T14:19:46.718Z,22.78
2019-03-12T14:22:15.035Z,22.79
2019-03-12T14:24:43.450Z,22.82
2019-03-12T14:27:11.615Z,22.81
2019-03-12T14:29:39.942Z,22.84
2019-03-12T14:32:11.841Z,22.81
2019-03-12T14:34:38.820Z,22.85
2019-03-12T14:37:07.053Z,22.85
2019-03-12T14:39:35.424Z,22.87
2019-03-12T14:42:04.986Z,22.82
2019-03-12T14:44:33.296Z,22.90
2019-03-12T14:47:01.564Z,22.88
2019-03-12T14:49:32.071Z,22.90
2019-03-12T14:52:20.482Z,22.86
2019-03-12T14:54:48.838Z,22.85
2019-03-12T14:57:17.153Z,22.88
2019-03-12T14:59:45.495Z,22.91
2019-03-12T15:02:13.856Z,22.92
2019-03-12T15:04:42.227Z,22.88
2019-03-12T15:07:10.545Z,22.87
2019-03-12T15:09:38.808Z,22.81
2019-03-12T15:12:07.104Z,22.75
2019-03-12T15:14:35.453Z,22.73
2019-03-12T15:17:03.940Z,22.73
2019-03-12T15:19:32.337Z,22.73
2019-03-12T15:22:00.690Z,22.74
2019-03-12T15:24:28.948Z,22.73
2019-03-12T15:26:57.373Z,22.72
2019-03-12T15:29:25.592Z,22.69
2019-03-12T15:32:03.657Z,22.67
2019-03-12T15:34:23.999Z,22.67
2019-03-12T15:36:52.268Z,22.64
2019-03-12T15:39:20.537Z,22.64
2019-03-12T15:41:48.926Z,22.62
2019-03-12T15:44:19.188Z,22.63
2019-03-12T15:46:47.136Z,22.62
2019-03-12T15:49:15.423Z,22.59
2019-03-12T15:51:43.673Z,22.60
2019-03-12T15:54:11.894Z,22.59
2019-03-12T15:56:40.222Z,22.60
2019-03-12T15:59:08.475Z,22.57
2019-03-12T16:01:38.466Z,22.56
2019-03-12T16:04:06.858Z,22.19
2019-03-12T16:06:35.194Z,22.53
2019-03-12T16:09:05.358Z,22.50
2019-03-12T16:11:33.612Z,22.50
2019-03-12T16:14:01.865Z,22.47
2019-03-12T16:16:30.116Z,22.48
2019-03-12T16:18:58.385Z,22.44
2019-03-12T16:21:26.699Z,22.42
2019-03-12T16:23:54.954Z,22.41
2019-03-12T16:26:23.157Z,22.40
2019-03-12T16:28:51.360Z,22.39
2019-03-12T16:31:19.615Z,22.38
2019-03-12T16:33:47.886Z,22.38
2019-03-12T16:36:16.117Z,22.38
2019-03-12T16:38:44.414Z,22.36
2019-03-12T16:41:12.617Z,22.36
2019-03-12T16:43:40.809Z,22.35
2019-03-12T16:46:09.060Z,22.33
2019-03-12T16:48:38.587Z,22.33
2019-03-12T16:51:07.127Z,22.32
2019-03-12T16:53:35.345Z,22.30
2019-03-12T16:56:03.655Z,22.32
2019-03-12T16:58:31.919Z,22.32
2019-03-12T17:01:00.151Z,22.30
2019-03-12T17:03:28.356Z,22.29
2019-03-12T17:05:56.576Z,22.26
2019-03-12T17:08:24.860Z,22.28
2019-03-12T17:10:58.524Z,22.28
2019-03-12T17:13:23.066Z,22.28
2019-03-12T17:15:54.805Z,22.28
2019-03-12T17:18:21.149Z,22.28
2019-03-12T17:20:49.421Z,22.27
2019-03-12T17:23:17.658Z,22.26
2019-03-12T17:25:45.884Z,22.24
2019-03-12T17:28:14.116Z,22.28
2019-03-12T17:30:42.335Z,22.24
2019-03-12T17:33:10.582Z,22.24
2019-03-12T17:35:38.842Z,22.24
2019-03-12T17:38:07.166Z,22.22
2019-03-12T17:40:35.381Z,22.21
2019-03-12T17:43:03.648Z,22.22
2019-03-12T17:45:31.856Z,22.21
2019-03-12T17:48:00.073Z,22.20
2019-03-12T17:50:28.307Z,22.21
2019-03-12T17:52:56.501Z,22.19
2019-03-12T17:55:24.721Z,22.17
2019-03-12T17:57:52.927Z,22.18
2019-03-12T18:00:21.974Z,22.19
2019-03-12T18:02:50.185Z,22.12
2019-03-12T18:05:18.509Z,22.07
2019-03-12T18:07:46.762Z,22.00
2019-03-12T18:10:14.972Z,21.95
2019-03-12T18:12:43.117Z,21.87
2019-03-12T18:15:12.401Z,21.85
2019-03-12T18:17:40.576Z,21.80
2019-03-12T18:20:09.727Z,21.84
2019-03-12T18:22:39.092Z,21.92
2019-03-12T18:25:08.893Z,21.93
2019-03-12T18:27:37.063Z,21.94
2019-03-12T18:30:05.718Z,21.98
2019-03-12T18:32:33.875Z,21.97
2019-03-12T18:35:02.062Z,21.99
2019-03-12T18:37:30.457Z,22.00
2019-03-12T18:39:58.623Z,21.98
2019-03-12T18:42:26.773Z,21.99
2019-03-12T18:44:54.942Z,21.98
2019-03-12T18:47:23.475Z,21.98
2019-03-12T18:49:51.713Z,21.98
2019-03-12T18:52:19.912Z,21.98
2019-03-12T18:54:48.404Z,22.02
2019-03-12T18:57:16.996Z,22.04
2019-03-12T18:59:45.143Z,22.05
2019-03-12T19:02:13.291Z,22.05
2019-03-12T19:04:41.467Z,22.03
2019-03-12T19:07:09.648Z,22.05
2019-03-12T19:09:37.819Z,22.04
2019-03-12T19:12:05.955Z,22.05
2019-03-12T19:14:34.116Z,22.03
2019-03-12T19:17:02.243Z,22.04
2019-03-12T19:19:30.313Z,22.03
2019-03-12T19:21:58.383Z,22.03
2019-03-12T19:24:26.463Z,22.03
2019-03-12T19:26:54.605Z,22.02
2019-03-12T19:29:22.676Z,22.01
2019-03-12T19:32:18.683Z,22.02
2019-03-12T19:34:46.852Z,22.01
2019-03-12T19:37:14.983Z,22.01
2019-03-12T19:39:43.043Z,21.98
2019-03-12T19:42:11.146Z,21.99
2019-03-12T19:44:39.217Z,21.98
2019-03-12T19:47:07.296Z,21.98
2019-03-12T19:49:35.368Z,21.96
2019-03-12T19:52:03.768Z,21.95
2019-03-12T19:54:31.864Z,21.93
2019-03-12T19:57:00.047Z,21.93
2019-03-12T19:59:28.111Z,21.92
2019-03-12T20:01:56.796Z,21.92
2019-03-12T20:04:24.878Z,21.91
2019-03-12T20:06:52.959Z,21.91
2019-03-12T20:09:38.939Z,21.91
2019-03-12T20:12:32.384Z,21.95
2019-03-12T20:15:34.888Z,21.95
2019-03-12T20:18:34.132Z,21.95
2019-03-12T20:21:37.012Z,21.97
2019-03-12T20:24:25.619Z,21.97
2019-03-12T20:27:13.631Z,21.93
2019-03-12T20:29:59.515Z,21.91
2019-03-12T20:33:04.831Z,21.87
2019-03-12T20:35:52.432Z,21.88
2019-03-12T20:38:45.819Z,21.87
2019-03-12T20:41:32.079Z,21.88
2019-03-12T20:44:31.336Z,21.84
2019-03-12T20:47:24.360Z,21.86
2019-03-12T20:50:10.443Z,21.87
2019-03-12T20:53:00.724Z,21.87
2019-03-12T20:55:47.007Z,21.85
2019-03-12T20:58:28.803Z,21.84
2019-03-12T21:01:34.611Z,21.87
2019-03-12T21:04:17.392Z,21.84
2019-03-12T21:07:16.787Z,21.85
2019-03-12T21:10:02.734Z,21.85
2019-03-12T21:12:45.649Z,21.82
2019-03-12T21:15:34.441Z,21.80
2019-03-12T21:18:19.837Z,21.81
2019-03-12T21:21:08.579Z,21.79
2019-03-12T21:23:46.732Z,21.81
2019-03-12T21:26:40.001Z,21.80
2019-03-12T21:29:33.355Z,21.82
2019-03-12T21:32:01.457Z,21.81
2019-03-12T21:34:29.710Z,21.78
2019-03-12T21:36:57.923Z,21.76
2019-03-12T21:39:26.045Z,21.78
2019-03-12T21:41:54.233Z,21.77
2019-03-12T21:44:22.459Z,21.79
2019-03-12T21:46:50.721Z,21.77
2019-03-12T21:49:18.933Z,21.72
2019-03-12T21:51:47.165Z,21.69
2019-03-12T21:54:15.461Z,21.69
2019-03-12T21:56:43.652Z,21.66
2019-03-12T21:59:11.945Z,21.67
2019-03-12T22:01:40.149Z,21.69
2019-03-12T22:04:08.424Z,21.71
2019-03-12T22:06:36.576Z,21.71
2019-03-12T22:09:05.205Z,21.73
2019-03-12T22:11:33.380Z,21.71
2019-03-12T22:14:01.602Z,21.68
2019-03-12T22:16:29.813Z,21.70
2019-03-12T22:18:57.996Z,21.69
2019-03-12T22:21:48.194Z,21.66
2019-03-12T22:24:20.277Z,21.63
2019-03-12T22:26:48.442Z,21.61
2019-03-12T22:29:16.772Z,21.62
2019-03-12T22:31:45.024Z,21.61
2019-03-12T22:34:13.262Z,21.62
2019-03-12T22:36:41.462Z,21.64
2019-03-12T22:39:09.904Z,21.63
2019-03-12T22:41:38.079Z,21.63
2019-03-12T22:44:06.315Z,21.63
2019-03-12T22:46:34.634Z,21.59
2019-03-12T22:49:02.890Z,21.61
2019-03-12T22:51:31.058Z,21.55
2019-03-12T22:53:59.300Z,21.60
2019-03-12T22:56:27.535Z,21.56
2019-03-12T22:58:55.711Z,21.59
2019-03-12T23:01:23.876Z,21.58
2019-03-12T23:03:52.052Z,21.58
2019-03-12T23:06:20.314Z,21.56
2019-03-12T23:08:48.453Z,21.54
2019-03-12T23:11:16.674Z,21.54
2019-03-12T23:13:45.208Z,21.59
2019-03-12T23:16:13.443Z,21.61
2019-03-12T23:18:41.738Z,21.61
2019-03-12T23:21:09.928Z,21.60
2019-03-12T23:23:38.146Z,21.61
2019-03-12T23:26:06.415Z,21.63
2019-03-12T23:28:34.703Z,21.60
2019-03-12T23:31:03.220Z,21.57
2019-03-12T23:33:31.459Z,21.59
2019-03-12T23:35:59.790Z,21.52
2019-03-12T23:38:27.991Z,21.58
2019-03-12T23:40:56.174Z,21.51
2019-03-12T23:43:24.529Z,21.48
2019-03-12T23:45:52.690Z,21.50
2019-03-12T23:48:20.900Z,21.49
2019-03-12T23:50:49.084Z,21.46
2019-03-12T23:53:19.532Z,21.47
2019-03-12T23:55:47.831Z,21.46
2019-03-12T23:58:16.042Z,21.47
